createdAt,value
2022-09-12T00:01:52.997Z,24.40
2022-09-12T00:04:25.137Z,25.20
2022-09-12T00:07:32.823Z,25.40
2022-09-12T00:10:07.784Z,25.27
2022-09-12T00:15:42.471Z,25.23
2022-09-12T00:18:24.363Z,24.77
2022-09-12T00:21:20.805Z,24.83
2022-09-12T00:23:52.501Z,27.17
2022-09-12T00:26:29.802Z,26.10
2022-09-12T00:29:24.924Z,26.47
2022-09-12T00:35:10.704Z,26.80
2022-09-12T00:37:41.754Z,27.37
2022-09-12T00:40:14.639Z,27.20
2022-09-12T00:42:51.777Z,27.63
2022-09-12T00:45:28.179Z,27.63
2022-09-12T00:48:01.872Z,27.07
2022-09-12T00:50:51.023Z,27.70
2022-09-12T00:56:25.951Z,27.50
2022-09-12T00:59:02.963Z,27.60
2022-09-12T01:01:35.366Z,28.37
2022-09-12T01:04:06.594Z,28.27
2022-09-12T01:06:43.565Z,27.30
2022-09-12T01:12:26.271Z,26.97
2022-09-12T01:18:18.221Z,26.77
2022-09-12T01:21:08.975Z,25.63
2022-09-12T01:24:26.082Z,27.10
2022-09-12T01:27:38.703Z,26.10
2022-09-12T01:30:42.421Z,24.57
2022-09-12T01:33:47.706Z,25.90
2022-09-12T01:36:36.254Z,24.63
2022-09-12T01:39:10.024Z,24.07
2022-09-12T01:41:53.177Z,24.73
2022-09-12T01:44:37.825Z,23.90
2022-09-12T01:47:29.680Z,24.90
2022-09-12T01:50:12.567Z,24.30
2022-09-12T01:55:58.697Z,23.77
2022-09-12T01:58:37.697Z,24.13
2022-09-12T02:01:27.284Z,24.80
2022-09-12T02:04:13.681Z,23.93
2022-09-12T02:07:12.753Z,24.70
2022-09-12T02:15:37.842Z,23.40
2022-09-12T02:18:25.059Z,23.53
2022-09-12T02:21:02.339Z,22.90
2022-09-12T02:23:44.189Z,22.93
2022-09-12T02:26:33.382Z,22.13
2022-09-12T02:29:16.829Z,22.73
2022-09-12T02:31:56.019Z,21.47
2022-09-12T02:34:52.493Z,22.63
2022-09-12T02:37:33.218Z,21.07
2022-09-12T02:40:17.860Z,19.77
2022-09-12T02:42:55.445Z,19.47
2022-09-12T02:45:49.711Z,19.20
2022-09-12T02:51:26.718Z,20.43
2022-09-12T02:54:04.247Z,20.27
2022-09-12T02:56:52.196Z,19.93
2022-09-12T03:05:12.814Z,20.63
2022-09-12T03:11:46.956Z,19.27
2022-09-12T03:14:33.865Z,20.20
2022-09-12T03:17:24.424Z,19.57
2022-09-12T03:20:15.697Z,19.83
2022-09-12T03:22:56.203Z,19.03
2022-09-12T03:25:49.701Z,18.10
2022-09-12T03:28:29.316Z,18.50
2022-09-12T03:31:05.567Z,18.30
2022-09-12T03:33:40.640Z,17.73
2022-09-12T03:36:34.991Z,18.70
2022-09-12T03:39:10.545Z,17.53
2022-09-12T03:41:50.757Z,18.30
2022-09-12T03:44:39.258Z,17.93
2022-09-12T03:47:11.461Z,18.17
2022-09-12T03:49:43.365Z,18.17
2022-09-12T03:52:14.390Z,17.47
2022-09-12T03:54:46.576Z,19.13
2022-09-12T03:57:18.073Z,19.80
2022-09-12T03:59:53.140Z,18.70
2022-09-12T04:02:24.227Z,18.03
2022-09-12T04:04:55.556Z,17.47
2022-09-12T04:07:26.923Z,17.17
2022-09-12T04:09:58.568Z,16.63
2022-09-12T04:12:29.528Z,16.07
2022-09-12T04:15:06.002Z,16.80
2022-09-12T04:17:37.881Z,15.40
2022-09-12T04:20:09.766Z,15.77
2022-09-12T04:22:41.040Z,15.57
2022-09-12T04:25:13.266Z,16.03
2022-09-12T04:27:47.005Z,15.30
2022-09-12T04:30:20.000Z,15.97
2022-09-12T04:32:56.031Z,15.00
2022-09-12T04:35:28.903Z,14.80
2022-09-12T04:38:00.001Z,14.87
2022-09-12T04:40:33.416Z,14.67
2022-09-12T04:43:05.133Z,14.30
2022-09-12T04:45:38.815Z,13.50
2022-09-12T04:48:10.400Z,15.23
2022-09-12T04:50:41.694Z,14.63
2022-09-12T04:53:12.774Z,13.50
2022-09-12T04:55:44.073Z,13.97
2022-09-12T04:58:16.395Z,14.97
2022-09-12T05:00:50.225Z,13.47
2022-09-12T05:03:22.691Z,15.20
2022-09-12T05:05:56.431Z,14.20
2022-09-12T05:08:28.323Z,13.60
2022-09-12T05:11:03.723Z,14.33
2022-09-12T05:13:34.897Z,13.17
2022-09-12T05:16:10.181Z,13.93
2022-09-12T05:18:42.748Z,13.10
2022-09-12T05:21:17.211Z,13.13
2022-09-12T05:23:48.740Z,14.57
2022-09-12T05:26:21.381Z,13.00
2022-09-12T05:28:53.750Z,13.00
2022-09-12T05:31:28.187Z,13.00
2022-09-12T05:34:00.294Z,13.03
2022-09-12T05:36:33.210Z,12.80
2022-09-12T05:39:04.804Z,11.83
2022-09-12T05:41:37.512Z,13.27
2022-09-12T05:44:09.694Z,13.60
2022-09-12T05:46:52.074Z,13.67
2022-09-12T05:49:23.904Z,13.07
2022-09-12T05:51:55.157Z,13.37
2022-09-12T05:54:30.834Z,13.03
2022-09-12T05:57:02.928Z,13.67
2022-09-12T05:59:34.755Z,14.57
2022-09-12T06:02:08.095Z,13.83
2022-09-12T06:04:39.938Z,13.33
2022-09-12T06:07:11.169Z,13.87
2022-09-12T06:09:42.929Z,13.37
2022-09-12T06:12:14.700Z,13.77
2022-09-12T06:14:46.009Z,13.27
2022-09-12T06:17:20.578Z,13.43
2022-09-12T06:19:51.596Z,13.73
2022-09-12T06:22:22.838Z,13.00
2022-09-12T06:27:42.017Z,13.73
2022-09-12T06:30:15.154Z,12.83
2022-09-12T06:32:50.243Z,13.30
2022-09-12T06:35:22.534Z,14.13
2022-09-12T06:37:57.238Z,13.60
2022-09-12T06:40:29.291Z,13.63
2022-09-12T06:43:00.457Z,12.63
2022-09-12T06:45:31.759Z,12.67
2022-09-12T06:48:05.062Z,12.77
2022-09-12T06:50:35.879Z,12.97
2022-09-12T06:56:08.665Z,12.10
2022-09-12T06:58:41.373Z,12.30
2022-09-12T07:01:14.881Z,12.23
2022-09-12T07:03:52.118Z,13.27
2022-09-12T07:06:25.108Z,13.17
2022-09-12T07:08:57.894Z,13.30
2022-09-12T07:11:31.161Z,12.93
2022-09-12T07:14:03.344Z,12.60
2022-09-12T07:16:34.898Z,12.47
2022-09-12T07:19:10.982Z,13.27
2022-09-12T07:21:43.552Z,12.77
2022-09-12T07:24:14.802Z,11.87
2022-09-12T07:26:46.566Z,11.93
2022-09-12T07:29:35.969Z,12.80
2022-09-12T07:32:09.034Z,12.37
2022-09-12T07:34:43.297Z,13.00
2022-09-12T07:37:15.814Z,12.93
2022-09-12T07:39:46.958Z,12.23
2022-09-12T07:42:18.476Z,12.73
2022-09-12T07:44:49.963Z,12.80
2022-09-12T07:47:21.678Z,12.27
2022-09-12T07:49:55.533Z,12.43
2022-09-12T07:52:26.767Z,12.30
2022-09-12T07:54:57.952Z,12.53
2022-09-12T07:57:29.233Z,12.63
2022-09-12T08:00:00.017Z,12.70
2022-09-12T08:02:31.886Z,13.43
2022-09-12T08:05:06.718Z,13.10
2022-09-12T08:07:38.360Z,13.43
2022-09-12T08:10:10.384Z,13.00
2022-09-12T08:12:43.230Z,13.43
2022-09-12T08:15:14.735Z,12.93
2022-09-12T08:17:46.668Z,12.77
2022-09-12T08:20:20.299Z,14.20
2022-09-12T08:22:51.677Z,12.50
2022-09-12T08:25:23.031Z,12.83
2022-09-12T08:27:54.230Z,12.73
2022-09-12T08:30:25.513Z,13.23
2022-09-12T08:32:56.666Z,13.50
2022-09-12T08:35:31.972Z,12.50
2022-09-12T08:38:02.927Z,13.03
2022-09-12T08:40:35.173Z,13.87
2022-09-12T08:43:18.297Z,12.20
2022-09-12T08:45:57.969Z,13.07
2022-09-12T08:48:28.968Z,13.60
2022-09-12T08:51:03.647Z,13.30
2022-09-12T08:53:37.915Z,12.73
2022-09-12T08:56:13.256Z,13.10
2022-09-12T08:58:46.225Z,13.30
2022-09-12T09:01:29.925Z,13.07
2022-09-12T09:04:28.789Z,12.67
2022-09-12T09:07:38.195Z,12.90
2022-09-12T09:10:21.354Z,13.37
2022-09-12T09:12:59.802Z,13.40
2022-09-12T09:15:47.744Z,13.60
2022-09-12T09:18:25.129Z,13.33
2022-09-12T09:20:59.427Z,12.77
2022-09-12T09:23:34.746Z,12.80
2022-09-12T09:26:10.249Z,12.93
2022-09-12T09:28:48.139Z,13.73
2022-09-12T09:31:20.385Z,13.33
2022-09-12T09:33:55.099Z,12.77
2022-09-12T09:36:41.153Z,12.77
2022-09-12T09:39:23.025Z,14.13
2022-09-12T09:42:05.186Z,13.30
2022-09-12T09:44:37.407Z,13.30
2022-09-12T09:47:09.261Z,13.97
2022-09-12T09:49:41.036Z,14.37
2022-09-12T09:52:15.522Z,13.90
2022-09-12T09:54:53.605Z,14.47
2022-09-12T09:57:48.115Z,13.30
2022-09-12T10:00:32.659Z,13.83
2022-09-12T10:03:32.559Z,14.43
2022-09-12T10:06:05.556Z,15.43
2022-09-12T10:08:39.547Z,15.13
2022-09-12T10:11:28.308Z,15.23
2022-09-12T10:14:01.814Z,14.93
2022-09-12T10:16:34.383Z,15.00
2022-09-12T10:19:06.386Z,15.47
2022-09-12T10:21:41.510Z,15.57
2022-09-12T10:24:25.495Z,15.67
2022-09-12T10:27:18.186Z,15.63
2022-09-12T10:29:52.612Z,15.87
2022-09-12T10:32:30.980Z,15.07
2022-09-12T10:35:05.376Z,15.43
2022-09-12T10:37:39.958Z,16.80
2022-09-12T10:40:25.399Z,16.53
2022-09-12T10:43:01.001Z,16.17
2022-09-12T10:45:34.172Z,15.83
2022-09-12T10:48:25.287Z,15.40
2022-09-12T10:50:56.801Z,15.77
2022-09-12T10:53:34.129Z,16.20
2022-09-12T10:56:13.156Z,16.33
2022-09-12T10:59:15.695Z,16.30
2022-09-12T11:01:52.207Z,16.23
2022-09-12T11:04:40.441Z,16.77
2022-09-12T11:07:38.785Z,16.33
2022-09-12T11:10:24.952Z,16.20
2022-09-12T11:13:07.434Z,17.70
2022-09-12T11:16:11.290Z,17.23
2022-09-12T11:19:06.067Z,16.67
2022-09-12T11:22:00.791Z,16.90
2022-09-12T11:24:52.601Z,17.20
2022-09-12T11:27:38.460Z,17.77
2022-09-12T11:30:14.128Z,16.73
2022-09-12T11:33:07.374Z,16.83
2022-09-12T11:35:54.583Z,16.90
2022-09-12T11:38:48.910Z,17.33
2022-09-12T11:41:27.001Z,16.80
2022-09-12T11:44:03.575Z,16.20
2022-09-12T11:46:39.984Z,16.33
2022-09-12T11:49:23.043Z,17.07
2022-09-12T11:52:01.448Z,17.50
2022-09-12T11:54:39.594Z,16.40
2022-09-12T11:57:20.826Z,16.50
2022-09-12T11:59:56.335Z,16.90
2022-09-12T12:02:31.164Z,17.87
2022-09-12T12:05:23.249Z,16.47
2022-09-12T12:07:58.637Z,18.10
2022-09-12T12:10:37.480Z,15.83
2022-09-12T12:13:14.330Z,17.43
2022-09-12T12:15:51.605Z,17.13
2022-09-12T12:18:25.899Z,16.93
2022-09-12T12:20:58.468Z,17.80
2022-09-12T12:23:35.661Z,17.50
2022-09-12T12:26:08.010Z,17.83
2022-09-12T12:29:05.290Z,16.87
2022-09-12T12:32:14.358Z,18.13
2022-09-12T12:34:46.432Z,18.03
2022-09-12T12:37:52.070Z,17.30
2022-09-12T12:40:32.960Z,17.50
2022-09-12T12:43:27.135Z,17.03
2022-09-12T12:46:14.175Z,17.10
2022-09-12T12:49:09.677Z,17.97
2022-09-12T12:52:02.197Z,17.83
2022-09-12T12:54:54.794Z,17.73
2022-09-12T12:57:39.782Z,19.23
2022-09-12T13:00:28.744Z,17.60
2022-09-12T13:03:03.513Z,18.07
2022-09-12T13:05:42.823Z,18.50
2022-09-12T13:08:25.632Z,18.20
2022-09-12T13:10:59.444Z,19.07
2022-09-12T13:13:36.428Z,18.10
2022-09-12T13:16:08.961Z,17.30
2022-09-12T13:18:46.661Z,18.10
2022-09-12T13:21:19.004Z,18.07
2022-09-12T13:24:04.792Z,18.73
2022-09-12T13:26:44.886Z,18.93
2022-09-12T13:29:20.245Z,19.47
2022-09-12T13:31:55.005Z,17.90
2022-09-12T13:34:29.383Z,19.27
2022-09-12T13:37:28.539Z,18.47
2022-09-12T13:40:09.292Z,18.87
2022-09-12T13:42:45.915Z,19.10
2022-09-12T13:45:24.087Z,20.07
2022-09-12T13:47:59.053Z,20.23
2022-09-12T13:50:32.345Z,18.23
2022-09-12T13:53:05.680Z,20.17
2022-09-12T13:55:39.773Z,19.47
2022-09-12T13:58:23.042Z,20.57
2022-09-12T14:01:11.195Z,19.53
2022-09-12T14:04:01.675Z,19.17
2022-09-12T14:06:45.493Z,20.13
2022-09-12T14:09:24.997Z,19.67
2022-09-12T14:11:57.173Z,19.00
2022-09-12T14:17:30.531Z,21.60
2022-09-12T14:23:06.099Z,20.67
2022-09-12T14:25:50.836Z,20.33
2022-09-12T14:28:24.711Z,20.63
2022-09-12T14:31:09.374Z,20.70
2022-09-12T14:34:14.560Z,20.17
2022-09-12T14:36:58.395Z,21.07
2022-09-12T14:39:49.828Z,21.00
2022-09-12T14:47:46.024Z,20.17
2022-09-12T14:50:32.249Z,20.17
2022-09-12T14:53:09.711Z,19.37
2022-09-12T14:56:10.683Z,22.03
2022-09-12T14:58:46.432Z,21.40
2022-09-12T15:01:51.627Z,20.63
2022-09-12T15:04:43.900Z,18.90
2022-09-12T15:10:24.080Z,19.13
2022-09-12T15:13:26.182Z,18.50
2022-09-12T15:16:02.858Z,21.00
2022-09-12T15:21:22.915Z,19.23
2022-09-12T15:23:56.467Z,19.50
2022-09-12T15:26:32.650Z,18.27
2022-09-12T15:29:04.370Z,18.20
2022-09-12T15:31:36.224Z,19.10
2022-09-12T15:34:07.783Z,19.37
2022-09-12T15:36:39.044Z,19.23
2022-09-12T15:39:14.310Z,17.90
2022-09-12T15:41:45.412Z,18.27
2022-09-12T15:47:02.627Z,19.33
2022-09-12T15:49:34.023Z,17.63
2022-09-12T15:52:05.974Z,18.30
2022-09-12T15:54:40.016Z,18.60
2022-09-12T15:57:11.694Z,18.20
2022-09-12T15:59:42.739Z,18.13
2022-09-12T16:02:14.528Z,17.70
2022-09-12T16:04:46.156Z,18.53
2022-09-12T16:07:18.607Z,17.97
2022-09-12T16:09:54.608Z,18.23
2022-09-12T16:12:26.062Z,17.23
2022-09-12T16:14:58.840Z,18.53
2022-09-12T16:17:31.931Z,17.20
2022-09-12T16:20:03.206Z,18.23
2022-09-12T16:22:34.628Z,17.67
2022-09-12T16:25:10.346Z,16.20
2022-09-12T16:27:48.841Z,16.87
2022-09-12T16:30:27.221Z,17.23
2022-09-12T16:32:58.959Z,17.83
2022-09-12T16:35:30.542Z,17.03
2022-09-12T16:38:07.042Z,16.93
2022-09-12T16:40:39.943Z,17.60
2022-09-12T16:43:11.168Z,18.30
2022-09-12T16:45:42.557Z,17.90
2022-09-12T16:48:13.806Z,16.23
2022-09-12T16:50:45.007Z,17.40
2022-09-12T16:53:16.400Z,17.77
2022-09-12T16:55:55.326Z,17.50
2022-09-12T16:58:26.634Z,17.17
2022-09-12T17:01:05.065Z,17.27
2022-09-12T17:03:37.008Z,16.13
2022-09-12T17:06:11.072Z,15.17
2022-09-12T17:08:43.649Z,15.90
2022-09-12T17:11:18.881Z,15.27
2022-09-12T17:14:07.523Z,16.30
2022-09-12T17:16:40.380Z,15.43
2022-09-12T17:19:15.920Z,17.53
2022-09-12T17:21:48.503Z,15.67
2022-09-12T17:24:19.862Z,15.97
2022-09-12T17:26:53.504Z,15.57
2022-09-12T17:29:24.894Z,16.50
2022-09-12T17:31:56.678Z,15.50
2022-09-12T17:37:28.558Z,15.30
2022-09-12T17:40:01.281Z,14.90
2022-09-12T17:42:36.918Z,16.03
2022-09-12T17:45:08.948Z,14.50
2022-09-12T17:47:40.141Z,15.63
2022-09-12T17:50:30.758Z,13.60
2022-09-12T17:53:06.605Z,14.97
2022-09-12T17:58:39.421Z,14.70
2022-09-12T18:01:30.929Z,15.37
2022-09-12T18:07:05.147Z,14.57
2022-09-12T18:09:39.330Z,15.90
2022-09-12T18:12:11.853Z,14.50
2022-09-12T18:14:45.621Z,15.07
2022-09-12T18:17:21.553Z,14.50
2022-09-12T18:22:43.289Z,14.27
2022-09-12T18:25:14.840Z,15.53
2022-09-12T18:27:48.192Z,14.53
2022-09-12T18:30:25.215Z,14.90
2022-09-12T18:32:57.298Z,14.73
2022-09-12T18:35:34.087Z,14.50
2022-09-12T18:38:05.513Z,14.73
2022-09-12T18:40:37.432Z,16.10
2022-09-12T18:43:08.949Z,15.80
2022-09-12T18:45:41.770Z,16.07
2022-09-12T18:48:13.113Z,16.40
2022-09-12T18:50:43.907Z,15.20
2022-09-12T18:53:15.893Z,16.27
2022-09-12T18:55:47.616Z,15.13
2022-09-12T18:58:18.981Z,15.33
2022-09-12T19:00:51.810Z,14.90
2022-09-12T19:03:23.326Z,15.50
2022-09-12T19:05:55.042Z,16.10
2022-09-12T19:08:26.533Z,15.87
2022-09-12T19:11:01.998Z,15.77
2022-09-12T19:13:33.969Z,16.17
2022-09-12T19:16:09.980Z,16.07
2022-09-12T19:18:42.093Z,16.43
2022-09-12T19:21:16.435Z,17.03
2022-09-12T19:23:48.930Z,16.67
2022-09-12T19:26:21.380Z,16.93
2022-09-12T19:28:53.682Z,17.23
2022-09-12T19:31:31.343Z,16.83
2022-09-12T19:34:04.636Z,16.47
2022-09-12T19:36:45.790Z,17.47
2022-09-12T19:39:19.082Z,17.60
2022-09-12T19:41:50.286Z,17.63
2022-09-12T19:44:22.226Z,17.33
2022-09-12T19:46:55.590Z,18.13
2022-09-12T19:49:27.529Z,16.63
2022-09-12T19:51:59.155Z,16.70
2022-09-12T19:54:30.463Z,17.07
2022-09-12T19:57:02.173Z,16.40
2022-09-12T19:59:33.441Z,16.00
2022-09-12T20:02:07.258Z,15.53
2022-09-12T20:04:45.294Z,16.87
2022-09-12T20:07:16.757Z,16.80
2022-09-12T20:09:47.976Z,16.00
2022-09-12T20:12:19.296Z,18.27
2022-09-12T20:14:50.595Z,15.83
2022-09-12T20:17:24.256Z,18.17
2022-09-12T20:19:55.645Z,17.57
2022-09-12T20:22:26.926Z,17.20
2022-09-12T20:24:58.290Z,17.30
2022-09-12T20:27:29.816Z,18.13
2022-09-12T20:30:01.291Z,17.33
2022-09-12T20:32:34.905Z,17.63
2022-09-12T20:35:10.818Z,17.57
2022-09-12T20:37:43.074Z,17.87
2022-09-12T20:40:14.683Z,17.97
2022-09-12T20:42:46.329Z,16.37
2022-09-12T20:45:18.648Z,17.57
2022-09-12T20:47:52.198Z,17.40
2022-09-12T20:50:23.705Z,17.27
2022-09-12T20:52:56.689Z,17.70
2022-09-12T20:55:28.496Z,16.80
2022-09-12T20:57:59.728Z,17.80
2022-09-12T21:00:35.103Z,17.23
2022-09-12T21:03:09.353Z,17.80
2022-09-12T21:05:41.701Z,18.67
2022-09-12T21:08:13.387Z,18.97
2022-09-12T21:10:45.009Z,19.73
2022-09-12T21:13:17.186Z,18.67
2022-09-12T21:19:03.993Z,18.23
2022-09-12T21:21:39.819Z,17.77
2022-09-12T21:24:11.168Z,18.93
2022-09-12T21:29:43.113Z,18.97
2022-09-12T21:35:28.189Z,18.87
2022-09-12T21:38:34.163Z,18.20
2022-09-12T21:41:10.382Z,19.30
2022-09-12T21:43:42.294Z,17.70
2022-09-12T21:46:16.640Z,18.63
2022-09-12T21:48:49.734Z,19.27
2022-09-12T21:51:21.749Z,18.77
2022-09-12T21:53:55.414Z,17.30
2022-09-12T21:56:29.092Z,17.67
2022-09-12T21:59:00.292Z,17.50
2022-09-12T22:01:31.926Z,17.83
2022-09-12T22:04:03.134Z,16.40
2022-09-12T22:06:35.451Z,16.83
2022-09-12T22:09:09.577Z,16.70
2022-09-12T22:11:41.223Z,16.57
2022-09-12T22:14:13.660Z,16.73
2022-09-12T22:16:44.546Z,18.00
2022-09-12T22:19:16.328Z,17.53
2022-09-12T22:22:00.340Z,17.80
2022-09-12T22:24:33.442Z,16.40
2022-09-12T22:27:16.099Z,15.60
2022-09-12T22:33:05.614Z,16.17
2022-09-12T22:38:25.255Z,16.10
2022-09-12T22:41:01.816Z,16.80
2022-09-12T22:43:49.351Z,16.70
2022-09-12T22:46:26.176Z,16.73
2022-09-12T22:49:18.639Z,16.27
2022-09-12T22:51:52.028Z,16.33
2022-09-12T22:54:25.394Z,17.10
2022-09-12T22:57:05.595Z,16.20
2022-09-12T22:59:39.182Z,17.43
2022-09-12T23:02:09.774Z,17.00
2022-09-12T23:04:46.777Z,16.93
2022-09-12T23:07:18.135Z,15.90
2022-09-12T23:12:54.847Z,17.50
2022-09-12T23:15:26.728Z,16.73
2022-09-12T23:18:00.071Z,16.97
2022-09-12T23:20:35.194Z,16.50
2022-09-12T23:29:40.011Z,18.57
2022-09-12T23:35:31.974Z,17.57
2022-09-12T23:41:10.227Z,16.33
2022-09-12T23:43:47.211Z,16.70
2022-09-12T23:46:20.600Z,14.80
2022-09-12T23:49:07.385Z,16.70
2022-09-12T23:51:48.825Z,16.50
2022-09-12T23:54:24.405Z,16.13
2022-09-12T23:57:07.020Z,16.37
2022-09-12T23:59:43.593Z,16.10
